sensor_id;sensor_type;location;lat;lon;timestamp;P1;durP1;ratioP1;P2;durP2;ratioP2
52650;SDS011;38537;47.226;39.702;2023-08-30T00:01:46;5.22;;;1.30;;
52650;SDS011;38537;47.226;39.702;2023-08-30T00:04:13;3.28;;;1.23;;
52650;SDS011;38537;47.226;39.702;2023-08-30T00:06:41;2.63;;;1.45;;
52650;SDS011;38537;47.226;39.702;2023-08-30T00:09:08;2.63;;;1.48;;
52650;SDS011;38537;47.226;39.702;2023-08-30T00:11:35;1.65;;;1.35;;
52650;SDS011;38537;47.226;39.702;2023-08-30T00:14:04;2.95;;;1.52;;
52650;SDS011;38537;47.226;39.702;2023-08-30T00:16:33;4.05;;;1.30;;
52650;SDS011;38537;47.226;39.702;2023-08-30T00:19:00;5.97;;;1.45;;
52650;SDS011;38537;47.226;39.702;2023-08-30T00:21:28;1.90;;;1.20;;
52650;SDS011;38537;47.226;39.702;2023-08-30T00:23:55;3.47;;;1.40;;
52650;SDS011;38537;47.226;39.702;2023-08-30T00:26:22;2.30;;;1.40;;
52650;SDS011;38537;47.226;39.702;2023-08-30T00:28:50;2.22;;;1.50;;
52650;SDS011;38537;47.226;39.702;2023-08-30T00:31:18;5.25;;;1.38;;
52650;SDS011;38537;47.226;39.702;2023-08-30T00:33:45;2.20;;;1.30;;
52650;SDS011;38537;47.226;39.702;2023-08-30T00:36:12;3.72;;;1.58;;
52650;SDS011;38537;47.226;39.702;2023-08-30T00:38:40;2.45;;;1.23;;
52650;SDS011;38537;47.226;39.702;2023-08-30T00:41:08;4.22;;;1.45;;
52650;SDS011;38537;47.226;39.702;2023-08-30T00:43:35;2.53;;;1.35;;
52650;SDS011;38537;47.226;39.702;2023-08-30T00:46:02;3.72;;;1.33;;
52650;SDS011;38537;47.226;39.702;2023-08-30T00:48:30;5.00;;;1.50;;
52650;SDS011;38537;47.226;39.702;2023-08-30T00:50:57;4.13;;;1.38;;
52650;SDS011;38537;47.226;39.702;2023-08-30T00:53:24;3.28;;;1.50;;
52650;SDS011;38537;47.226;39.702;2023-08-30T00:55:52;4.13;;;1.90;;
52650;SDS011;38537;47.226;39.702;2023-08-30T00:58:19;4.45;;;2.00;;
52650;SDS011;38537;47.226;39.702;2023-08-30T01:00:47;4.55;;;1.95;;
52650;SDS011;38537;47.226;39.702;2023-08-30T01:03:14;4.07;;;1.67;;
52650;SDS011;38537;47.226;39.702;2023-08-30T01:05:43;4.28;;;1.83;;
52650;SDS011;38537;47.226;39.702;2023-08-30T01:08:11;9.13;;;1.70;;
52650;SDS011;38537;47.226;39.702;2023-08-30T01:13:58;4.80;;;1.80;;
52650;SDS011;38537;47.226;39.702;2023-08-30T01:16:32;3.15;;;1.40;;
52650;SDS011;38537;47.226;39.702;2023-08-30T01:18:59;3.83;;;1.70;;
52650;SDS011;38537;47.226;39.702;2023-08-30T01:22:17;4.82;;;1.70;;
52650;SDS011;38537;47.226;39.702;2023-08-30T01:27:44;4.40;;;1.80;;
52650;SDS011;38537;47.226;39.702;2023-08-30T01:30:14;3.15;;;2.10;;
52650;SDS011;38537;47.226;39.702;2023-08-30T01:32:42;4.00;;;1.60;;
52650;SDS011;38537;47.226;39.702;2023-08-30T01:35:11;2.85;;;1.73;;
52650;SDS011;38537;47.226;39.702;2023-08-30T01:37:44;4.22;;;1.95;;
52650;SDS011;38537;47.226;39.702;2023-08-30T01:40:13;3.22;;;1.80;;
52650;SDS011;38537;47.226;39.702;2023-08-30T01:42:43;4.60;;;2.40;;
52650;SDS011;38537;47.226;39.702;2023-08-30T01:45:15;6.13;;;1.90;;
52650;SDS011;38537;47.226;39.702;2023-08-30T01:47:44;4.30;;;2.15;;
52650;SDS011;38537;47.226;39.702;2023-08-30T01:50:13;4.18;;;2.03;;
52650;SDS011;38537;47.226;39.702;2023-08-30T01:52:42;3.58;;;2.00;;
52650;SDS011;38537;47.226;39.702;2023-08-30T01:55:09;5.03;;;2.00;;
52650;SDS011;38537;47.226;39.702;2023-08-30T01:57:40;3.47;;;2.08;;
52650;SDS011;38537;47.226;39.702;2023-08-30T02:00:07;5.82;;;2.08;;
52650;SDS011;38537;47.226;39.702;2023-08-30T02:02:45;12.95;;;2.65;;
52650;SDS011;38537;47.226;39.702;2023-08-30T02:05:12;6.10;;;2.75;;
52650;SDS011;38537;47.226;39.702;2023-08-30T02:07:43;7.32;;;2.30;;
52650;SDS011;38537;47.226;39.702;2023-08-30T02:10:22;5.72;;;2.50;;
52650;SDS011;38537;47.226;39.702;2023-08-30T02:12:52;4.93;;;2.90;;
52650;SDS011;38537;47.226;39.702;2023-08-30T02:15:22;5.63;;;2.50;;
52650;SDS011;38537;47.226;39.702;2023-08-30T02:17:52;4.00;;;2.50;;
52650;SDS011;38537;47.226;39.702;2023-08-30T02:20:22;6.20;;;2.85;;
52650;SDS011;38537;47.226;39.702;2023-08-30T02:22:50;3.95;;;1.95;;
52650;SDS011;38537;47.226;39.702;2023-08-30T02:25:17;5.65;;;2.50;;
52650;SDS011;38537;47.226;39.702;2023-08-30T02:27:46;5.25;;;2.47;;
52650;SDS011;38537;47.226;39.702;2023-08-30T02:30:14;5.70;;;2.40;;
52650;SDS011;38537;47.226;39.702;2023-08-30T02:32:41;3.47;;;2.65;;
52650;SDS011;38537;47.226;39.702;2023-08-30T02:35:09;5.35;;;2.47;;
52650;SDS011;38537;47.226;39.702;2023-08-30T02:37:37;4.75;;;2.42;;
52650;SDS011;38537;47.226;39.702;2023-08-30T02:40:06;5.28;;;2.70;;
52650;SDS011;38537;47.226;39.702;2023-08-30T02:42:38;6.13;;;2.38;;
52650;SDS011;38537;47.226;39.702;2023-08-30T02:45:05;7.55;;;2.40;;
52650;SDS011;38537;47.226;39.702;2023-08-30T02:47:33;6.43;;;2.05;;
52650;SDS011;38537;47.226;39.702;2023-08-30T02:50:01;6.13;;;2.25;;
52650;SDS011;38537;47.226;39.702;2023-08-30T02:52:29;2.75;;;1.90;;
52650;SDS011;38537;47.226;39.702;2023-08-30T02:54:56;3.92;;;1.90;;
52650;SDS011;38537;47.226;39.702;2023-08-30T02:57:24;2.83;;;2.10;;
52650;SDS011;38537;47.226;39.702;2023-08-30T02:59:51;8.55;;;2.53;;
52650;SDS011;38537;47.226;39.702;2023-08-30T03:02:18;4.88;;;2.47;;
52650;SDS011;38537;47.226;39.702;2023-08-30T03:04:46;3.03;;;2.28;;
52650;SDS011;38537;47.226;39.702;2023-08-30T03:07:13;4.50;;;2.33;;
52650;SDS011;38537;47.226;39.702;2023-08-30T03:09:41;7.90;;;2.33;;
52650;SDS011;38537;47.226;39.702;2023-08-30T03:12:08;5.75;;;2.20;;
52650;SDS011;38537;47.226;39.702;2023-08-30T03:14:35;4.00;;;1.90;;
52650;SDS011;38537;47.226;39.702;2023-08-30T03:17:06;8.00;;;2.20;;
52650;SDS011;38537;47.226;39.702;2023-08-30T03:19:33;3.25;;;2.10;;
52650;SDS011;38537;47.226;39.702;2023-08-30T03:22:00;4.00;;;1.83;;
52650;SDS011;38537;47.226;39.702;2023-08-30T03:24:27;6.18;;;1.67;;
52650;SDS011;38537;47.226;39.702;2023-08-30T03:26:56;3.75;;;1.70;;
52650;SDS011;38537;47.226;39.702;2023-08-30T03:29:23;3.90;;;1.70;;
52650;SDS011;38537;47.226;39.702;2023-08-30T03:31:51;5.05;;;2.00;;
52650;SDS011;38537;47.226;39.702;2023-08-30T03:34:18;3.08;;;2.00;;
52650;SDS011;38537;47.226;39.702;2023-08-30T03:36:45;5.85;;;1.90;;
52650;SDS011;38537;47.226;39.702;2023-08-30T03:39:17;5.53;;;2.00;;
52650;SDS011;38537;47.226;39.702;2023-08-30T03:41:45;3.45;;;2.00;;
52650;SDS011;38537;47.226;39.702;2023-08-30T03:44:12;8.02;;;1.80;;
52650;SDS011;38537;47.226;39.702;2023-08-30T03:46:40;2.88;;;1.70;;
52650;SDS011;38537;47.226;39.702;2023-08-30T03:49:07;3.38;;;1.58;;
52650;SDS011;38537;47.226;39.702;2023-08-30T03:51:34;5.13;;;1.90;;
52650;SDS011;38537;47.226;39.702;2023-08-30T03:54:02;3.15;;;1.90;;
52650;SDS011;38537;47.226;39.702;2023-08-30T03:56:30;4.30;;;1.95;;
52650;SDS011;38537;47.226;39.702;2023-08-30T03:58:58;4.85;;;1.90;;
52650;SDS011;38537;47.226;39.702;2023-08-30T04:01:25;4.78;;;1.88;;
52650;SDS011;38537;47.226;39.702;2023-08-30T04:03:53;4.63;;;1.70;;
52650;SDS011;38537;47.226;39.702;2023-08-30T04:06:22;5.05;;;1.90;;
52650;SDS011;38537;47.226;39.702;2023-08-30T04:08:50;3.50;;;1.70;;
52650;SDS011;38537;47.226;39.702;2023-08-30T04:11:17;4.07;;;1.98;;
52650;SDS011;38537;47.226;39.702;2023-08-30T04:13:46;2.80;;;1.70;;
52650;SDS011;38537;47.226;39.702;2023-08-30T04:16:13;6.07;;;1.80;;
52650;SDS011;38537;47.226;39.702;2023-08-30T04:18:40;6.10;;;1.80;;
52650;SDS011;38537;47.226;39.702;2023-08-30T04:21:07;10.85;;;1.90;;
52650;SDS011;38537;47.226;39.702;2023-08-30T04:23:35;3.58;;;1.70;;
52650;SDS011;38537;47.226;39.702;2023-08-30T04:26:04;4.40;;;1.70;;
52650;SDS011;38537;47.226;39.702;2023-08-30T04:28:31;1.92;;;1.40;;
52650;SDS011;38537;47.226;39.702;2023-08-30T04:30:59;6.28;;;1.73;;
52650;SDS011;38537;47.226;39.702;2023-08-30T04:33:26;5.85;;;1.80;;
52650;SDS011;38537;47.226;39.702;2023-08-30T04:35:53;4.45;;;1.60;;
52650;SDS011;38537;47.226;39.702;2023-08-30T04:38:21;7.70;;;1.73;;
52650;SDS011;38537;47.226;39.702;2023-08-30T04:40:49;5.28;;;1.58;;
52650;SDS011;38537;47.226;39.702;2023-08-30T04:43:16;5.90;;;1.48;;
52650;SDS011;38537;47.226;39.702;2023-08-30T04:45:46;5.28;;;1.60;;
52650;SDS011;38537;47.226;39.702;2023-08-30T04:48:15;3.85;;;1.58;;
52650;SDS011;38537;47.226;39.702;2023-08-30T04:50:43;3.22;;;1.42;;
52650;SDS011;38537;47.226;39.702;2023-08-30T04:53:10;2.97;;;1.50;;
52650;SDS011;38537;47.226;39.702;2023-08-30T04:55:37;8.02;;;1.70;;
52650;SDS011;38537;47.226;39.702;2023-08-30T04:58:05;6.28;;;1.48;;
52650;SDS011;38537;47.226;39.702;2023-08-30T05:00:35;3.47;;;1.83;;
52650;SDS011;38537;47.226;39.702;2023-08-30T05:03:03;4.78;;;1.33;;
52650;SDS011;38537;47.226;39.702;2023-08-30T05:05:30;4.50;;;1.50;;
52650;SDS011;38537;47.226;39.702;2023-08-30T05:07:58;5.38;;;1.40;;
52650;SDS011;38537;47.226;39.702;2023-08-30T05:10:26;5.30;;;1.75;;
52650;SDS011;38537;47.226;39.702;2023-08-30T05:12:54;4.65;;;1.40;;
52650;SDS011;38537;47.226;39.702;2023-08-30T05:15:21;4.13;;;1.52;;
52650;SDS011;38537;47.226;39.702;2023-08-30T05:17:48;10.35;;;1.67;;
52650;SDS011;38537;47.226;39.702;2023-08-30T05:20:15;3.80;;;1.40;;
52650;SDS011;38537;47.226;39.702;2023-08-30T05:22:43;5.82;;;1.50;;
52650;SDS011;38537;47.226;39.702;2023-08-30T05:25:10;4.53;;;1.60;;
52650;SDS011;38537;47.226;39.702;2023-08-30T05:27:38;4.60;;;1.40;;
52650;SDS011;38537;47.226;39.702;2023-08-30T05:30:05;3.60;;;1.52;;
52650;SDS011;38537;47.226;39.702;2023-08-30T05:32:34;6.68;;;1.60;;
52650;SDS011;38537;47.226;39.702;2023-08-30T05:35:21;2.65;;;1.45;;
52650;SDS011;38537;47.226;39.702;2023-08-30T05:38:18;8.38;;;1.75;;
52650;SDS011;38537;47.226;39.702;2023-08-30T05:40:55;6.88;;;1.60;;
52650;SDS011;38537;47.226;39.702;2023-08-30T05:43:23;5.30;;;1.40;;
52650;SDS011;38537;47.226;39.702;2023-08-30T05:45:50;6.50;;;1.60;;
52650;SDS011;38537;47.226;39.702;2023-08-30T05:48:17;9.10;;;1.60;;
52650;SDS011;38537;47.226;39.702;2023-08-30T05:50:45;3.92;;;1.67;;
52650;SDS011;38537;47.226;39.702;2023-08-30T05:53:13;3.58;;;1.55;;
52650;SDS011;38537;47.226;39.702;2023-08-30T05:55:40;3.88;;;1.85;;
52650;SDS011;38537;47.226;39.702;2023-08-30T05:58:08;3.88;;;1.58;;
52650;SDS011;38537;47.226;39.702;2023-08-30T06:00:36;3.78;;;1.42;;
52650;SDS011;38537;47.226;39.702;2023-08-30T06:03:04;6.30;;;1.50;;
52650;SDS011;38537;47.226;39.702;2023-08-30T06:05:31;4.03;;;1.50;;
52650;SDS011;38537;47.226;39.702;2023-08-30T06:07:59;4.93;;;1.50;;
52650;SDS011;38537;47.226;39.702;2023-08-30T06:10:27;3.53;;;1.40;;
52650;SDS011;38537;47.226;39.702;2023-08-30T06:12:55;2.75;;;1.50;;
52650;SDS011;38537;47.226;39.702;2023-08-30T06:15:22;3.47;;;1.75;;
52650;SDS011;38537;47.226;39.702;2023-08-30T06:17:50;3.70;;;1.30;;
52650;SDS011;38537;47.226;39.702;2023-08-30T06:20:17;5.32;;;1.50;;
52650;SDS011;38537;47.226;39.702;2023-08-30T06:22:44;4.20;;;1.20;;
52650;SDS011;38537;47.226;39.702;2023-08-30T06:25:12;3.90;;;1.50;;
52650;SDS011;38537;47.226;39.702;2023-08-30T06:27:41;2.97;;;1.40;;
52650;SDS011;38537;47.226;39.702;2023-08-30T06:30:10;10.18;;;1.75;;
52650;SDS011;38537;47.226;39.702;2023-08-30T06:32:38;7.00;;;1.55;;
52650;SDS011;38537;47.226;39.702;2023-08-30T06:35:05;3.67;;;1.52;;
52650;SDS011;38537;47.226;39.702;2023-08-30T06:37:33;2.45;;;1.48;;
52650;SDS011;38537;47.226;39.702;2023-08-30T06:40:00;3.20;;;1.33;;
52650;SDS011;38537;47.226;39.702;2023-08-30T06:42:30;1.58;;;1.17;;
52650;SDS011;38537;47.226;39.702;2023-08-30T06:44:57;5.43;;;1.55;;
52650;SDS011;38537;47.226;39.702;2023-08-30T06:47:25;2.75;;;1.42;;
52650;SDS011;38537;47.226;39.702;2023-08-30T06:49:53;2.85;;;1.40;;
52650;SDS011;38537;47.226;39.702;2023-08-30T06:52:21;5.47;;;1.50;;
52650;SDS011;38537;47.226;39.702;2023-08-30T06:54:48;1.35;;;1.25;;
52650;SDS011;38537;47.226;39.702;2023-08-30T06:57:16;1.67;;;1.30;;
52650;SDS011;38537;47.226;39.702;2023-08-30T06:59:43;2.40;;;1.25;;
52650;SDS011;38537;47.226;39.702;2023-08-30T07:02:11;4.95;;;1.58;;
52650;SDS011;38537;47.226;39.702;2023-08-30T07:04:38;2.03;;;1.30;;
52650;SDS011;38537;47.226;39.702;2023-08-30T07:07:06;6.20;;;1.50;;
52650;SDS011;38537;47.226;39.702;2023-08-30T07:09:34;2.80;;;1.27;;
52650;SDS011;38537;47.226;39.702;2023-08-30T07:12:01;4.43;;;1.25;;
52650;SDS011;38537;47.226;39.702;2023-08-30T07:14:29;3.33;;;1.48;;
52650;SDS011;38537;47.226;39.702;2023-08-30T07:16:56;2.42;;;1.40;;
52650;SDS011;38537;47.226;39.702;2023-08-30T07:19:24;7.72;;;1.23;;
52650;SDS011;38537;47.226;39.702;2023-08-30T07:21:52;5.78;;;1.40;;
52650;SDS011;38537;47.226;39.702;2023-08-30T07:24:19;2.17;;;1.30;;
52650;SDS011;38537;47.226;39.702;2023-08-30T07:26:46;2.78;;;1.52;;
52650;SDS011;38537;47.226;39.702;2023-08-30T07:29:13;2.90;;;1.38;;
52650;SDS011;38537;47.226;39.702;2023-08-30T07:31:41;4.38;;;1.50;;
52650;SDS011;38537;47.226;39.702;2023-08-30T07:34:08;4.60;;;1.35;;
52650;SDS011;38537;47.226;39.702;2023-08-30T07:36:37;5.07;;;1.42;;
52650;SDS011;38537;47.226;39.702;2023-08-30T07:39:13;5.28;;;1.30;;
52650;SDS011;38537;47.226;39.702;2023-08-30T07:41:40;2.60;;;1.35;;
52650;SDS011;38537;47.226;39.702;2023-08-30T07:44:08;2.13;;;1.30;;
52650;SDS011;38537;47.226;39.702;2023-08-30T07:46:35;3.50;;;1.55;;
52650;SDS011;38537;47.226;39.702;2023-08-30T07:49:03;2.30;;;1.45;;
52650;SDS011;38537;47.226;39.702;2023-08-30T07:51:30;3.90;;;1.50;;
52650;SDS011;38537;47.226;39.702;2023-08-30T07:53:57;3.10;;;1.70;;
52650;SDS011;38537;47.226;39.702;2023-08-30T07:56:25;3.10;;;1.48;;
52650;SDS011;38537;47.226;39.702;2023-08-30T07:58:53;2.13;;;1.35;;
52650;SDS011;38537;47.226;39.702;2023-08-30T08:01:21;1.40;;;1.27;;
52650;SDS011;38537;47.226;39.702;2023-08-30T08:03:49;1.80;;;1.17;;
52650;SDS011;38537;47.226;39.702;2023-08-30T08:06:33;3.38;;;1.45;;
52650;SDS011;38537;47.226;39.702;2023-08-30T08:09:04;4.65;;;1.40;;
52650;SDS011;38537;47.226;39.702;2023-08-30T08:11:32;3.17;;;1.40;;
52650;SDS011;38537;47.226;39.702;2023-08-30T08:14:00;2.05;;;1.10;;
52650;SDS011;38537;47.226;39.702;2023-08-30T08:16:28;18.40;;;1.40;;
52650;SDS011;38537;47.226;39.702;2023-08-30T08:18:56;3.85;;;1.40;;
52650;SDS011;38537;47.226;39.702;2023-08-30T08:21:26;1.95;;;1.50;;
52650;SDS011;38537;47.226;39.702;2023-08-30T08:23:54;3.45;;;1.50;;
52650;SDS011;38537;47.226;39.702;2023-08-30T08:26:24;3.63;;;1.30;;
52650;SDS011;38537;47.226;39.702;2023-08-30T08:28:53;2.50;;;1.30;;
52650;SDS011;38537;47.226;39.702;2023-08-30T08:31:21;2.42;;;1.23;;
52650;SDS011;38537;47.226;39.702;2023-08-30T08:36:42;3.42;;;1.30;;
52650;SDS011;38537;47.226;39.702;2023-08-30T08:39:09;3.00;;;1.20;;
52650;SDS011;38537;47.226;39.702;2023-08-30T08:44:12;5.47;;;1.45;;
52650;SDS011;38537;47.226;39.702;2023-08-30T08:46:40;3.00;;;1.38;;
52650;SDS011;38537;47.226;39.702;2023-08-30T08:49:12;5.90;;;1.48;;
52650;SDS011;38537;47.226;39.702;2023-08-30T08:51:42;3.00;;;1.40;;
52650;SDS011;38537;47.226;39.702;2023-08-30T08:54:11;4.53;;;1.42;;
52650;SDS011;38537;47.226;39.702;2023-08-30T08:56:39;4.50;;;1.52;;
52650;SDS011;38537;47.226;39.702;2023-08-30T08:59:07;2.85;;;1.48;;
52650;SDS011;38537;47.226;39.702;2023-08-30T09:01:36;2.90;;;1.55;;
52650;SDS011;38537;47.226;39.702;2023-08-30T09:04:08;1.55;;;1.30;;
52650;SDS011;38537;47.226;39.702;2023-08-30T09:06:36;1.42;;;1.15;;
52650;SDS011;38537;47.226;39.702;2023-08-30T09:09:07;4.93;;;1.40;;
52650;SDS011;38537;47.226;39.702;2023-08-30T09:11:35;2.20;;;1.20;;
52650;SDS011;38537;47.226;39.702;2023-08-30T09:14:17;4.10;;;1.30;;
52650;SDS011;38537;47.226;39.702;2023-08-30T09:16:57;2.90;;;1.45;;
52650;SDS011;38537;47.226;39.702;2023-08-30T09:19:25;4.47;;;1.50;;
52650;SDS011;38537;47.226;39.702;2023-08-30T09:21:57;2.92;;;1.33;;
52650;SDS011;38537;47.226;39.702;2023-08-30T09:24:36;4.13;;;1.30;;
52650;SDS011;38537;47.226;39.702;2023-08-30T09:27:05;3.60;;;1.30;;
52650;SDS011;38537;47.226;39.702;2023-08-30T09:29:33;3.55;;;1.70;;
52650;SDS011;38537;47.226;39.702;2023-08-30T09:32:01;2.97;;;1.30;;
52650;SDS011;38537;47.226;39.702;2023-08-30T09:34:30;3.63;;;1.30;;
52650;SDS011;38537;47.226;39.702;2023-08-30T09:36:58;6.25;;;1.30;;
52650;SDS011;38537;47.226;39.702;2023-08-30T09:39:31;3.72;;;1.10;;
52650;SDS011;38537;47.226;39.702;2023-08-30T09:42:03;3.58;;;1.30;;
52650;SDS011;38537;47.226;39.702;2023-08-30T09:44:31;4.63;;;1.50;;
52650;SDS011;38537;47.226;39.702;2023-08-30T09:46:59;3.00;;;1.45;;
52650;SDS011;38537;47.226;39.702;2023-08-30T09:49:27;9.38;;;1.85;;
52650;SDS011;38537;47.226;39.702;2023-08-30T09:51:58;3.05;;;1.17;;
52650;SDS011;38537;47.226;39.702;2023-08-30T09:54:33;6.82;;;1.38;;
52650;SDS011;38537;47.226;39.702;2023-08-30T09:57:06;4.30;;;1.23;;
52650;SDS011;38537;47.226;39.702;2023-08-30T09:59:34;4.13;;;1.30;;
52650;SDS011;38537;47.226;39.702;2023-08-30T10:02:03;5.60;;;1.30;;
52650;SDS011;38537;47.226;39.702;2023-08-30T10:04:32;4.72;;;1.25;;
52650;SDS011;38537;47.226;39.702;2023-08-30T10:07:02;5.95;;;1.27;;
52650;SDS011;38537;47.226;39.702;2023-08-30T10:09:31;1.25;;;1.10;;
52650;SDS011;38537;47.226;39.702;2023-08-30T10:11:59;2.75;;;1.10;;
52650;SDS011;38537;47.226;39.702;2023-08-30T10:14:32;3.40;;;1.30;;
52650;SDS011;38537;47.226;39.702;2023-08-30T10:17:03;1.73;;;1.17;;
52650;SDS011;38537;47.226;39.702;2023-08-30T10:19:32;2.10;;;1.10;;
52650;SDS011;38537;47.226;39.702;2023-08-30T10:22:04;2.13;;;1.17;;
52650;SDS011;38537;47.226;39.702;2023-08-30T10:24:39;4.38;;;1.40;;
52650;SDS011;38537;47.226;39.702;2023-08-30T10:27:31;2.78;;;1.45;;
52650;SDS011;38537;47.226;39.702;2023-08-30T10:30:01;3.78;;;1.30;;
52650;SDS011;38537;47.226;39.702;2023-08-30T10:32:31;3.55;;;1.40;;
52650;SDS011;38537;47.226;39.702;2023-08-30T10:35:00;3.20;;;1.40;;
52650;SDS011;38537;47.226;39.702;2023-08-30T10:37:30;2.05;;;1.10;;
52650;SDS011;38537;47.226;39.702;2023-08-30T10:40:00;2.83;;;1.25;;
52650;SDS011;38537;47.226;39.702;2023-08-30T10:42:31;2.63;;;1.35;;
52650;SDS011;38537;47.226;39.702;2023-08-30T10:45:04;7.82;;;1.58;;
52650;SDS011;38537;47.226;39.702;2023-08-30T10:47:40;4.45;;;1.30;;
52650;SDS011;38537;47.226;39.702;2023-08-30T10:50:09;6.93;;;1.27;;
52650;SDS011;38537;47.226;39.702;2023-08-30T10:52:39;3.20;;;1.30;;
52650;SDS011;38537;47.226;39.702;2023-08-30T10:55:15;4.65;;;1.35;;
52650;SDS011;38537;47.226;39.702;2023-08-30T10:57:44;2.67;;;1.50;;
52650;SDS011;38537;47.226;39.702;2023-08-30T11:00:19;2.70;;;1.23;;
52650;SDS011;38537;47.226;39.702;2023-08-30T11:02:49;1.52;;;1.20;;
52650;SDS011;38537;47.226;39.702;2023-08-30T11:05:18;3.50;;;1.30;;
52650;SDS011;38537;47.226;39.702;2023-08-30T11:07:48;1.70;;;1.40;;
52650;SDS011;38537;47.226;39.702;2023-08-30T11:10:17;3.10;;;1.40;;
52650;SDS011;38537;47.226;39.702;2023-08-30T11:12:47;3.50;;;1.20;;
52650;SDS011;38537;47.226;39.702;2023-08-30T11:15:18;3.03;;;1.30;;
52650;SDS011;38537;47.226;39.702;2023-08-30T11:17:47;3.97;;;1.40;;
52650;SDS011;38537;47.226;39.702;2023-08-30T11:20:15;5.00;;;1.50;;
52650;SDS011;38537;47.226;39.702;2023-08-30T11:22:46;5.15;;;1.30;;
52650;SDS011;38537;47.226;39.702;2023-08-30T11:25:15;1.70;;;1.40;;
52650;SDS011;38537;47.226;39.702;2023-08-30T11:27:45;6.13;;;1.58;;
52650;SDS011;38537;47.226;39.702;2023-08-30T11:30:14;3.65;;;1.60;;
52650;SDS011;38537;47.226;39.702;2023-08-30T11:32:42;2.83;;;1.40;;
52650;SDS011;38537;47.226;39.702;2023-08-30T11:35:11;2.05;;;1.40;;
52650;SDS011;38537;47.226;39.702;2023-08-30T11:37:39;2.80;;;1.30;;
52650;SDS011;38537;47.226;39.702;2023-08-30T11:40:11;9.93;;;1.83;;
52650;SDS011;38537;47.226;39.702;2023-08-30T11:42:40;3.83;;;1.85;;
52650;SDS011;38537;47.226;39.702;2023-08-30T11:45:09;2.67;;;1.65;;
52650;SDS011;38537;47.226;39.702;2023-08-30T11:47:37;4.05;;;1.40;;
52650;SDS011;38537;47.226;39.702;2023-08-30T11:50:07;2.05;;;1.33;;
52650;SDS011;38537;47.226;39.702;2023-08-30T11:52:37;3.28;;;1.20;;
52650;SDS011;38537;47.226;39.702;2023-08-30T11:55:05;4.22;;;1.27;;
52650;SDS011;38537;47.226;39.702;2023-08-30T11:57:38;2.30;;;1.17;;
52650;SDS011;38537;47.226;39.702;2023-08-30T12:00:09;3.15;;;1.15;;
52650;SDS011;38537;47.226;39.702;2023-08-30T12:02:41;3.83;;;1.27;;
52650;SDS011;38537;47.226;39.702;2023-08-30T12:05:11;2.30;;;1.17;;
52650;SDS011;38537;47.226;39.702;2023-08-30T12:07:40;3.95;;;1.40;;
52650;SDS011;38537;47.226;39.702;2023-08-30T12:10:09;3.05;;;1.25;;
52650;SDS011;38537;47.226;39.702;2023-08-30T12:12:44;4.75;;;1.50;;
52650;SDS011;38537;47.226;39.702;2023-08-30T12:15:12;2.70;;;1.40;;
52650;SDS011;38537;47.226;39.702;2023-08-30T12:17:42;2.05;;;1.20;;
52650;SDS011;38537;47.226;39.702;2023-08-30T12:20:16;5.22;;;1.50;;
52650;SDS011;38537;47.226;39.702;2023-08-30T12:22:45;3.42;;;1.70;;
52650;SDS011;38537;47.226;39.702;2023-08-30T12:25:21;2.38;;;1.38;;
52650;SDS011;38537;47.226;39.702;2023-08-30T12:27:53;2.35;;;1.65;;
52650;SDS011;38537;47.226;39.702;2023-08-30T12:30:21;2.45;;;1.63;;
52650;SDS011;38537;47.226;39.702;2023-08-30T12:32:48;9.32;;;1.90;;
52650;SDS011;38537;47.226;39.702;2023-08-30T12:35:16;3.40;;;1.33;;
52650;SDS011;38537;47.226;39.702;2023-08-30T12:37:43;2.47;;;1.67;;
52650;SDS011;38537;47.226;39.702;2023-08-30T12:40:11;4.10;;;2.20;;
52650;SDS011;38537;47.226;39.702;2023-08-30T12:42:38;4.13;;;2.05;;
52650;SDS011;38537;47.226;39.702;2023-08-30T12:45:06;3.38;;;1.70;;
52650;SDS011;38537;47.226;39.702;2023-08-30T12:47:35;2.72;;;1.30;;
52650;SDS011;38537;47.226;39.702;2023-08-30T12:50:03;3.85;;;1.70;;
52650;SDS011;38537;47.226;39.702;2023-08-30T12:52:32;5.60;;;1.60;;
52650;SDS011;38537;47.226;39.702;2023-08-30T12:54:59;4.30;;;1.90;;
52650;SDS011;38537;47.226;39.702;2023-08-30T12:57:27;3.13;;;1.30;;
52650;SDS011;38537;47.226;39.702;2023-08-30T12:59:54;5.72;;;1.70;;
52650;SDS011;38537;47.226;39.702;2023-08-30T13:02:21;5.75;;;1.58;;
52650;SDS011;38537;47.226;39.702;2023-08-30T13:04:49;5.43;;;1.70;;
52650;SDS011;38537;47.226;39.702;2023-08-30T13:07:16;5.80;;;1.80;;
52650;SDS011;38537;47.226;39.702;2023-08-30T13:09:44;6.53;;;1.67;;
52650;SDS011;38537;47.226;39.702;2023-08-30T13:12:14;2.40;;;1.33;;
52650;SDS011;38537;47.226;39.702;2023-08-30T13:14:41;3.28;;;1.60;;
52650;SDS011;38537;47.226;39.702;2023-08-30T13:17:09;8.25;;;1.38;;
52650;SDS011;38537;47.226;39.702;2023-08-30T13:19:36;2.33;;;1.30;;
52650;SDS011;38537;47.226;39.702;2023-08-30T13:22:03;5.15;;;1.60;;
52650;SDS011;38537;47.226;39.702;2023-08-30T13:24:31;4.32;;;1.42;;
52650;SDS011;38537;47.226;39.702;2023-08-30T13:26:59;3.47;;;1.55;;
52650;SDS011;38537;47.226;39.702;2023-08-30T13:29:26;4.70;;;1.80;;
52650;SDS011;38537;47.226;39.702;2023-08-30T13:31:54;6.93;;;2.20;;
52650;SDS011;38537;47.226;39.702;2023-08-30T13:34:22;7.05;;;2.65;;
52650;SDS011;38537;47.226;39.702;2023-08-30T13:36:49;4.28;;;2.53;;
52650;SDS011;38537;47.226;39.702;2023-08-30T13:39:16;4.63;;;3.03;;
52650;SDS011;38537;47.226;39.702;2023-08-30T13:41:45;6.70;;;2.70;;
52650;SDS011;38537;47.226;39.702;2023-08-30T13:44:14;4.13;;;2.20;;
52650;SDS011;38537;47.226;39.702;2023-08-30T13:46:43;4.63;;;2.42;;
52650;SDS011;38537;47.226;39.702;2023-08-30T13:49:11;4.95;;;2.33;;
52650;SDS011;38537;47.226;39.702;2023-08-30T13:51:39;7.15;;;2.80;;
52650;SDS011;38537;47.226;39.702;2023-08-30T13:54:07;7.00;;;3.55;;
52650;SDS011;38537;47.226;39.702;2023-08-30T13:56:35;6.40;;;3.00;;
52650;SDS011;38537;47.226;39.702;2023-08-30T13:59:04;2.90;;;2.40;;
52650;SDS011;38537;47.226;39.702;2023-08-30T14:01:34;6.07;;;2.53;;
52650;SDS011;38537;47.226;39.702;2023-08-30T14:04:02;4.85;;;2.50;;
52650;SDS011;38537;47.226;39.702;2023-08-30T14:06:34;6.60;;;2.55;;
52650;SDS011;38537;47.226;39.702;2023-08-30T14:09:01;5.53;;;2.70;;
52650;SDS011;38537;47.226;39.702;2023-08-30T14:11:32;5.60;;;2.15;;
52650;SDS011;38537;47.226;39.702;2023-08-30T14:14:00;6.40;;;2.22;;
52650;SDS011;38537;47.226;39.702;2023-08-30T14:16:29;4.55;;;2.80;;
52650;SDS011;38537;47.226;39.702;2023-08-30T14:18:56;5.13;;;3.22;;
52650;SDS011;38537;47.226;39.702;2023-08-30T14:21:27;3.92;;;2.80;;
52650;SDS011;38537;47.226;39.702;2023-08-30T14:23:54;3.22;;;2.50;;
52650;SDS011;38537;47.226;39.702;2023-08-30T14:26:22;3.85;;;2.60;;
52650;SDS011;38537;47.226;39.702;2023-08-30T14:28:50;7.82;;;2.67;;
52650;SDS011;38537;47.226;39.702;2023-08-30T14:31:18;6.20;;;2.20;;
52650;SDS011;38537;47.226;39.702;2023-08-30T14:33:47;2.90;;;2.00;;
52650;SDS011;38537;47.226;39.702;2023-08-30T14:36:15;6.35;;;2.05;;
52650;SDS011;38537;47.226;39.702;2023-08-30T14:38:43;9.32;;;2.00;;
52650;SDS011;38537;47.226;39.702;2023-08-30T14:41:11;7.57;;;2.50;;
52650;SDS011;38537;47.226;39.702;2023-08-30T14:43:39;5.50;;;1.88;;
52650;SDS011;38537;47.226;39.702;2023-08-30T14:46:07;4.55;;;2.25;;
52650;SDS011;38537;47.226;39.702;2023-08-30T14:48:41;5.25;;;2.20;;
52650;SDS011;38537;47.226;39.702;2023-08-30T14:51:08;5.07;;;1.80;;
52650;SDS011;38537;47.226;39.702;2023-08-30T14:53:36;5.45;;;1.77;;
52650;SDS011;38537;47.226;39.702;2023-08-30T14:56:04;6.53;;;1.40;;